Time;durP1;ratioP1;P1;durP2;ratioP2;P2;SDS_P1;SDS_P2;PMS_P1;PMS_P2;Temp;Humidity;BMP_temperature;BMP_pressure;BME280_temperature;BME280_humidity;BME280_pressure;Samples;Min_cycle;Max_cycle;Signal;HPM_P1;HPM_P2
2022/04/25 00:01:55;;;;;;;;;;;19.10;48.50;;;;;;5050255;28;19956;-78
2022/04/25 00:04:21;;;;;;;;;;;19.10;48.60;;;;;;5042861;28;19910;-78
2022/04/25 00:06:46;;;;;;;;;;;19.10;48.50;;;;;;5048011;28;20372;-78
2022/04/25 00:09:11;;;;;;;;;;;19.10;48.50;;;;;;5049525;28;19909;-78
2022/04/25 00:11:37;;;;;;;;;;;19.10;48.80;;;;;;5050797;28;19909;-78
2022/04/25 00:14:04;;;;;;;;;;;19.10;48.70;;;;;;5042915;28;19917;-78
2022/04/25 00:16:29;;;;;;;;;;;19.10;48.90;;;;;;5049152;28;19925;-78
2022/04/25 00:18:55;;;;;;;;;;;19.10;48.80;;;;;;5041863;28;19970;-79
2022/04/25 00:21:20;;;;;;;;;;;19.10;48.80;;;;;;5047521;28;20011;-79
2022/04/25 00:23:46;;;;;;;;;;;19.20;49.00;;;;;;5046255;28;19959;-79
2022/04/25 00:26:11;;;;;;;;;;;19.20;49.00;;;;;;5043868;28;20431;-79
2022/04/25 00:28:37;;;;;;;;;;;19.10;48.80;;;;;;5051219;28;19952;-79
2022/04/25 00:31:02;;;;;;;;;;;19.20;49.00;;;;;;5051388;28;19944;-79
2022/04/25 00:33:28;;;;;;;;;;;19.00;49.10;;;;;;5050931;28;20368;-79
2022/04/25 00:35:53;;;;;;;;;;;19.30;49.50;;;;;;5050699;28;19909;-79
2022/04/25 00:38:19;;;;;;;;;;;19.10;49.40;;;;;;5049523;28;20365;-79
2022/04/25 00:40:44;;;;;;;;;;;19.10;49.40;;;;;;5049325;28;19960;-79
2022/04/25 00:43:10;;;;;;;;;;;19.10;49.20;;;;;;5050893;28;19920;-79
2022/04/25 00:45:35;;;;;;;;;;;19.10;49.30;;;;;;5042868;28;19958;-79
2022/04/25 00:48:01;;;;;;;;;;;19.10;49.20;;;;;;5086086;22;19966;-80
2022/04/25 00:50:27;;;;;;;;;;;19.10;49.20;;;;;;5075336;28;20016;-81
2022/04/25 00:52:53;;;;;;;;;;;19.10;49.40;;;;;;5091931;28;20375;-80
2022/04/25 00:55:18;;;;;;;;;;;19.00;49.30;;;;;;5096791;28;19919;-80
2022/04/25 00:57:44;;;;;;;;;;;19.00;49.40;;;;;;5096792;28;20425;-81
2022/04/25 01:00:11;;;;;;;;;;;19.00;49.60;;;;;;5070614;28;19920;-80
2022/04/25 01:02:37;;;;;;;;;;;19.00;49.40;;;;;;5076510;28;19916;-80
2022/04/25 01:05:04;;;;;;;;;;;19.10;49.60;;;;;;5076568;28;19920;-80
2022/04/25 01:07:30;;;;;;;;;;;19.10;49.50;;;;;;5076472;28;20149;-79
2022/04/25 01:09:56;;;;;;;;;;;19.00;49.40;;;;;;5076161;28;19966;-80
2022/04/25 01:12:21;;;;;;;;;;;19.10;49.50;;;;;;5084311;28;19919;-80
2022/04/25 01:14:54;;;;;;;;;;;19.10;49.40;;;;;;5066342;28;20379;-81
2022/04/25 01:17:20;;;;;;;;;;;19.10;49.40;;;;;;5078888;28;19929;-78
2022/04/25 01:19:45;;;;;;;;;;;19.10;49.70;;;;;;5074935;28;19917;-80
2022/04/25 01:22:14;;;;;;;;;;;19.10;49.50;;;;;;5075876;28;19939;-80
2022/04/25 01:27:24;;;;;;;;;;;19.10;49.80;;;;;;5073517;28;20012;-81
2022/04/25 01:29:50;;;;;;;;;;;19.20;49.70;;;;;;5061421;28;19958;-81
2022/04/25 01:32:16;;;;;;;;;;;19.10;49.80;;;;;;5066644;28;19912;-80
2022/04/25 01:34:42;;;;;;;;;;;19.20;49.80;;;;;;5075943;28;19920;-79
2022/04/25 01:37:09;;;;;;;;;;;19.20;50.00;;;;;;5076636;28;19999;-79
2022/04/25 01:39:35;;;;;;;;;;;19.30;49.80;;;;;;5074242;28;19997;-79
2022/04/25 01:42:01;;;;;;;;;;;19.20;49.80;;;;;;5058998;28;19912;-79
2022/04/25 01:44:26;;;;;;;;;;;19.20;49.90;;;;;;5075418;28;19996;-80
2022/04/25 01:46:52;;;;;;;;;;;19.20;49.80;;;;;;5075147;28;20399;-79
2022/04/25 01:49:17;;;;;;;;;;;19.10;50.10;;;;;;5064642;28;19970;-81
2022/04/25 01:51:43;;;;;;;;;;;19.20;50.30;;;;;;5062328;28;19934;-80
2022/04/25 01:54:08;;;;;;;;;;;19.30;50.10;;;;;;5077718;28;19921;-79
2022/04/25 01:56:34;;;;;;;;;;;19.10;49.80;;;;;;5065934;28;19926;-79
2022/04/25 01:59:00;;;;;;;;;;;19.30;50.10;;;;;;5074877;28;19979;-78
2022/04/25 02:01:25;;;;;;;;;;;19.20;50.00;;;;;;5075708;28;19971;-79
2022/04/25 02:03:51;;;;;;;;;;;19.30;49.90;;;;;;5075822;28;20245;-78
2022/04/25 02:06:16;;;;;;;;;;;19.20;49.80;;;;;;5075742;28;19920;-79
2022/04/25 02:08:42;;;;;;;;;;;19.20;50.10;;;;;;5066728;28;20011;-80
2022/04/25 02:11:20;;;;;;;;;;;19.30;50.10;;;;;;5073478;28;19919;-80
2022/04/25 02:13:46;;;;;;;;;;;19.20;50.00;;;;;;5076108;28;19936;-80
2022/04/25 02:16:12;;;;;;;;;;;19.20;50.30;;;;;;5065887;28;20271;-80
2022/04/25 02:18:40;;;;;;;;;;;19.20;50.50;;;;;;5070325;28;19912;-81
2022/04/25 02:21:06;;;;;;;;;;;19.10;50.30;;;;;;5075881;28;19913;-80
2022/04/25 02:23:31;;;;;;;;;;;19.20;50.20;;;;;;5075042;28;19909;-80
2022/04/25 02:25:57;;;;;;;;;;;19.20;50.80;;;;;;5059696;28;20363;-80
2022/04/25 02:28:23;;;;;;;;;;;19.10;50.10;;;;;;5074748;28;19913;-80
2022/04/25 02:30:51;;;;;;;;;;;19.20;50.10;;;;;;5074132;28;19913;-81
2022/04/25 02:33:17;;;;;;;;;;;19.20;50.20;;;;;;5075079;28;19917;-80
2022/04/25 02:35:43;;;;;;;;;;;19.30;50.30;;;;;;5075003;28;19920;-81
2022/04/25 02:38:08;;;;;;;;;;;19.40;50.20;;;;;;5074946;28;19913;-80
2022/04/25 02:40:34;;;;;;;;;;;19.20;50.10;;;;;;5063748;28;19913;-80
2022/04/25 02:42:59;;;;;;;;;;;19.20;50.10;;;;;;5074636;28;19916;-80
2022/04/25 02:45:24;;;;;;;;;;;19.20;50.10;;;;;;5075837;28;19913;-80
2022/04/25 02:47:50;;;;;;;;;;;19.10;50.20;;;;;;5074693;28;19997;-79
2022/04/25 02:50:16;;;;;;;;;;;19.10;50.30;;;;;;5074794;28;19951;-80
2022/04/25 02:52:41;;;;;;;;;;;19.10;50.30;;;;;;5074728;28;19913;-80
2022/04/25 02:55:08;;;;;;;;;;;19.10;50.40;;;;;;5064294;28;20294;-80
2022/04/25 02:57:33;;;;;;;;;;;19.10;50.30;;;;;;5065145;28;20337;-81
2022/04/25 02:59:58;;;;;;;;;;;19.10;50.40;;;;;;5074842;28;19963;-80
2022/04/25 03:02:24;;;;;;;;;;;19.10;50.10;;;;;;5072513;28;19919;-80
2022/04/25 03:04:50;;;;;;;;;;;19.20;50.10;;;;;;5074942;28;19966;-80
2022/04/25 03:07:15;;;;;;;;;;;19.20;50.20;;;;;;5060367;28;19916;-80
2022/04/25 03:09:41;;;;;;;;;;;19.30;50.20;;;;;;5074052;28;19917;-80
2022/04/25 03:12:07;;;;;;;;;;;19.20;50.00;;;;;;5075803;28;19916;-80
2022/04/25 03:14:34;;;;;;;;;;;19.30;50.10;;;;;;5072790;28;19912;-80
2022/04/25 03:17:00;;;;;;;;;;;19.30;50.10;;;;;;5074288;28;19927;-80
2022/04/25 03:19:25;;;;;;;;;;;19.40;50.30;;;;;;5073067;28;19913;-80
2022/04/25 03:21:51;;;;;;;;;;;19.30;50.00;;;;;;5081822;28;21666;-80
2022/04/25 03:24:17;;;;;;;;;;;19.30;50.10;;;;;;5075128;28;19928;-80
2022/04/25 03:26:42;;;;;;;;;;;19.30;50.00;;;;;;5058572;28;20272;-80
2022/04/25 03:29:08;;;;;;;;;;;19.30;50.10;;;;;;5074968;28;19965;-80
2022/04/25 03:31:34;;;;;;;;;;;19.30;50.10;;;;;;5073742;28;19995;-80
2022/04/25 03:33:59;;;;;;;;;;;19.30;50.40;;;;;;5068893;28;19923;-80
2022/04/25 03:36:26;;;;;;;;;;;19.20;50.40;;;;;;5073443;28;20303;-79
2022/04/25 03:38:52;;;;;;;;;;;19.20;50.50;;;;;;5072696;28;19917;-79
2022/04/25 03:41:18;;;;;;;;;;;19.30;50.60;;;;;;5068717;28;20351;-80
2022/04/25 03:43:43;;;;;;;;;;;19.20;50.50;;;;;;5073693;28;19912;-80
2022/04/25 03:46:09;;;;;;;;;;;19.30;50.40;;;;;;5073480;28;19913;-79
2022/04/25 03:48:34;;;;;;;;;;;19.30;50.40;;;;;;5054937;28;19969;-81
2022/04/25 03:51:00;;;;;;;;;;;19.30;50.60;;;;;;5073659;28;20360;-80
2022/04/25 03:53:26;;;;;;;;;;;19.20;50.50;;;;;;5071325;28;20501;-79
2022/04/25 03:58:35;;;;;;;;;;;19.30;50.70;;;;;;5072458;28;19942;-79
2022/04/25 04:01:02;;;;;;;;;;;19.30;50.80;;;;;;5073852;28;19973;-80
2022/04/25 04:03:32;;;;;;;;;;;19.20;50.70;;;;;;5073312;28;19908;-80
2022/04/25 04:05:57;;;;;;;;;;;19.20;50.70;;;;;;5074195;28;19987;-80
2022/04/25 04:08:23;;;;;;;;;;;19.10;50.50;;;;;;5068863;28;19908;-81
2022/04/25 04:10:48;;;;;;;;;;;19.20;51.40;;;;;;5075892;28;19912;-81
2022/04/25 04:13:14;;;;;;;;;;;19.20;50.30;;;;;;5070997;28;20423;-78
2022/04/25 04:15:40;;;;;;;;;;;19.20;50.40;;;;;;5069571;28;19915;-79
2022/04/25 04:18:06;;;;;;;;;;;19.30;50.30;;;;;;5069144;28;20384;-80
2022/04/25 04:20:32;;;;;;;;;;;19.30;50.30;;;;;;5071136;28;19956;-80
2022/04/25 04:22:57;;;;;;;;;;;19.30;50.30;;;;;;5062769;28;19967;-80
2022/04/25 04:25:23;;;;;;;;;;;19.20;50.30;;;;;;5072652;28;20425;-79
2022/04/25 04:27:49;;;;;;;;;;;19.40;50.20;;;;;;5070678;28;19913;-78
2022/04/25 04:30:15;;;;;;;;;;;19.30;50.20;;;;;;5071526;28;19936;-79
2022/04/25 04:32:41;;;;;;;;;;;19.30;50.30;;;;;;5071891;28;19960;-78
2022/04/25 04:35:09;;;;;;;;;;;19.30;50.20;;;;;;5071742;28;20377;-79
2022/04/25 04:37:35;;;;;;;;;;;19.30;50.40;;;;;;5065322;28;20366;-79
2022/04/25 04:42:45;;;;;;;;;;;19.30;50.30;;;;;;5071369;28;19915;-78
2022/04/25 04:45:11;;;;;;;;;;;19.30;50.20;;;;;;5069555;28;20287;-79
2022/04/25 04:47:38;;;;;;;;;;;19.30;50.20;;;;;;5069929;28;19990;-78
2022/04/25 04:50:04;;;;;;;;;;;19.30;50.30;;;;;;5069544;28;19920;-78
2022/04/25 04:52:30;;;;;;;;;;;19.20;50.30;;;;;;5070289;28;19913;-79
2022/04/25 04:54:55;;;;;;;;;;;19.20;50.30;;;;;;5051847;28;19973;-79
2022/04/25 04:57:21;;;;;;;;;;;19.20;50.30;;;;;;5070635;28;19913;-78
2022/04/25 04:59:46;;;;;;;;;;;19.20;50.40;;;;;;5071785;28;20478;-78
2022/04/25 05:02:11;;;;;;;;;;;19.20;50.30;;;;;;5072224;28;19912;-77
2022/04/25 05:04:38;;;;;;;;;;;19.20;50.30;;;;;;5053847;28;19920;-78
2022/04/25 05:07:04;;;;;;;;;;;19.20;50.20;;;;;;5072085;28;19944;-78
2022/04/25 05:09:30;;;;;;;;;;;19.30;50.30;;;;;;5071764;28;19999;-78
2022/04/25 05:11:55;;;;;;;;;;;19.30;50.20;;;;;;5072084;28;20351;-77
2022/04/25 05:14:21;;;;;;;;;;;19.30;50.10;;;;;;5072349;28;19915;-78
2022/04/25 05:16:46;;;;;;;;;;;19.40;50.40;;;;;;5072241;28;19988;-77
2022/04/25 05:19:12;;;;;;;;;;;19.20;50.20;;;;;;5071767;28;19914;-77
2022/04/25 05:21:38;;;;;;;;;;;19.30;50.30;;;;;;5074489;28;19908;-79
2022/04/25 05:24:04;;;;;;;;;;;19.30;50.10;;;;;;5077618;28;19908;-79
2022/04/25 05:26:29;;;;;;;;;;;19.40;50.10;;;;;;5080018;28;19994;-78
2022/04/25 05:28:54;;;;;;;;;;;19.40;50.20;;;;;;5065817;28;19920;-78
2022/04/25 05:31:20;;;;;;;;;;;19.50;50.00;;;;;;5057274;28;19909;-75
2022/04/25 05:33:45;;;;;;;;;;;19.60;50.00;;;;;;5053761;28;19913;-77
2022/04/25 05:36:11;;;;;;;;;;;19.50;50.20;;;;;;5072365;28;19991;-77
2022/04/25 05:38:37;;;;;;;;;;;19.60;50.00;;;;;;5074813;28;19909;-77
2022/04/25 05:41:03;;;;;;;;;;;19.70;49.70;;;;;;5075368;28;19935;-78
2022/04/25 05:43:29;;;;;;;;;;;19.70;50.40;;;;;;5069992;28;20277;-77
2022/04/25 05:45:54;;;;;;;;;;;19.70;49.80;;;;;;5072783;28;19913;-78
2022/04/25 05:53:49;;;;;;;;;;;18.90;50.50;;;;;;5074882;28;19962;-77
2022/04/25 05:56:14;;;;;;;;;;;19.30;49.60;;;;;;5074724;28;19916;-77
2022/04/25 05:58:40;;;;;;;;;;;19.70;48.80;;;;;;5074328;28;19912;-77
2022/04/25 06:01:05;;;;;;;;;;;20.00;48.80;;;;;;5075184;28;19909;-78
2022/04/25 06:03:30;;;;;;;;;;;20.10;47.70;;;;;;5053839;28;19916;-77
2022/04/25 06:05:56;;;;;;;;;;;20.20;47.40;;;;;;5068188;28;19923;-78
2022/04/25 06:08:21;;;;;;;;;;;20.30;47.20;;;;;;5084510;28;19946;-77
2022/04/25 06:10:47;;;;;;;;;;;20.40;47.20;;;;;;5070670;28;19909;-77
2022/04/25 06:13:13;;;;;;;;;;;20.20;47.00;;;;;;5062352;28;19954;-78
2022/04/25 06:15:39;;;;;;;;;;;20.20;47.10;;;;;;5074324;28;19954;-77
2022/04/25 06:18:05;;;;;;;;;;;20.10;49.30;;;;;;5056232;28;19912;-77
2022/04/25 06:20:30;;;;;;;;;;;20.10;52.70;;;;;;5074618;28;20280;-77
2022/04/25 06:22:58;;;;;;;;;;;20.10;51.40;;;;;;5074313;28;19909;-77
2022/04/25 06:25:24;;;;;;;;;;;20.20;50.10;;;;;;5074564;28;19916;-77
2022/04/25 06:27:50;;;;;;;;;;;20.20;49.40;;;;;;5074499;28;19915;-77
2022/04/25 06:30:16;;;;;;;;;;;20.20;49.50;;;;;;5055939;28;20006;-76
2022/04/25 06:32:41;;;;;;;;;;;20.30;48.70;;;;;;5055002;28;20283;-76
2022/04/25 06:35:08;;;;;;;;;;;20.40;48.50;;;;;;5055707;28;20002;-77
2022/04/25 06:37:33;;;;;;;;;;;20.50;48.10;;;;;;5073410;28;19919;-77
2022/04/25 06:39:59;;;;;;;;;;;20.40;47.90;;;;;;5074761;28;19908;-76
2022/04/25 06:42:25;;;;;;;;;;;20.40;47.70;;;;;;5093714;28;19908;-76
2022/04/25 06:44:51;;;;;;;;;;;20.40;47.70;;;;;;5093590;28;20267;-77
2022/04/25 06:47:16;;;;;;;;;;;20.40;47.60;;;;;;5093475;28;19953;-76
2022/04/25 06:49:42;;;;;;;;;;;20.40;47.60;;;;;;5077044;28;20355;-76
2022/04/25 06:52:09;;;;;;;;;;;20.30;47.40;;;;;;5081025;28;19947;-76
2022/04/25 06:54:35;;;;;;;;;;;20.30;47.40;;;;;;5093402;28;19908;-76
2022/04/25 06:57:01;;;;;;;;;;;20.30;47.30;;;;;;5093338;28;20034;-76
2022/04/25 06:59:26;;;;;;;;;;;20.40;47.30;;;;;;5080307;28;20343;-76
2022/04/25 07:01:53;;;;;;;;;;;20.30;47.10;;;;;;5053529;28;20414;-76
2022/04/25 07:04:19;;;;;;;;;;;20.40;46.90;;;;;;5072597;28;19912;-76
2022/04/25 07:06:45;;;;;;;;;;;20.70;46.60;;;;;;5073250;28;20378;-78
2022/04/25 07:09:13;;;;;;;;;;;22.10;45.00;;;;;;5055774;28;20070;-77
2022/04/25 07:11:43;;;;;;;;;;;22.50;43.70;;;;;;5073427;28;19920;-77
2022/04/25 07:14:10;;;;;;;;;;;22.30;44.00;;;;;;5073390;28;19908;-77
2022/04/25 07:16:35;;;;;;;;;;;22.40;44.10;;;;;;5073027;28;19919;-77
2022/04/25 07:19:01;;;;;;;;;;;23.20;43.10;;;;;;5073400;28;19991;-78
2022/04/25 07:29:38;;;;;;;;;;;22.30;43.30;;;;;;5062769;28;20015;-77
2022/04/25 07:32:04;;;;;;;;;;;22.30;43.50;;;;;;5073271;28;20383;-77
2022/04/25 07:34:29;;;;;;;;;;;22.40;43.30;;;;;;5071858;28;19974;-78
2022/04/25 07:36:55;;;;;;;;;;;22.90;42.60;;;;;;5073113;28;19917;-76
2022/04/25 07:39:21;;;;;;;;;;;23.50;41.50;;;;;;5063597;28;20323;-77
2022/04/25 07:41:48;;;;;;;;;;;23.80;40.50;;;;;;5073109;28;19919;-77
2022/04/25 07:44:13;;;;;;;;;;;23.50;40.70;;;;;;5070896;28;19920;-76
2022/04/25 07:46:41;;;;;;;;;;;23.30;40.90;;;;;;5071592;28;19923;-76
2022/04/25 07:49:07;;;;;;;;;;;23.30;41.20;;;;;;5053658;28;20295;-77
2022/04/25 07:51:33;;;;;;;;;;;23.40;41.10;;;;;;5072539;28;19912;-77
2022/04/25 07:53:58;;;;;;;;;;;24.00;40.40;;;;;;5071547;28;19958;-77
2022/04/25 07:56:26;;;;;;;;;;;24.70;39.10;;;;;;5073458;28;20046;-78
2022/04/25 07:58:51;;;;;;;;;;;24.70;38.80;;;;;;5063168;28;19952;-78
2022/04/25 08:01:17;;;;;;;;;;;24.30;39.50;;;;;;5073122;28;19952;-78
2022/04/25 08:03:42;;;;;;;;;;;24.10;39.60;;;;;;5050761;28;19913;-78
2022/04/25 08:06:08;;;;;;;;;;;23.80;39.90;;;;;;5067355;28;19962;-78
2022/04/25 08:08:33;;;;;;;;;;;23.60;40.20;;;;;;5072516;28;20008;-78
2022/04/25 08:10:59;;;;;;;;;;;23.60;40.40;;;;;;5069881;28;19924;-79
2022/04/25 08:18:52;;;;;;;;;;;25.00;38.20;;;;;;5065784;28;19958;-78
2022/04/25 08:21:18;;;;;;;;;;;24.20;38.90;;;;;;5053336;28;19921;-78
2022/04/25 08:23:45;;;;;;;;;;;23.80;39.80;;;;;;5072197;28;19909;-78
2022/04/25 08:26:11;;;;;;;;;;;23.60;40.30;;;;;;5096949;22;19966;-75
2022/04/25 08:28:37;;;;;;;;;;;23.50;40.60;;;;;;5046782;28;19921;-76
2022/04/25 08:31:02;;;;;;;;;;;23.80;40.20;;;;;;5065156;28;19915;-76
2022/04/25 08:33:28;;;;;;;;;;;23.60;40.40;;;;;;5066678;28;20379;-75
2022/04/25 08:35:53;;;;;;;;;;;23.40;40.80;;;;;;5074873;28;20406;-75
2022/04/25 08:38:18;;;;;;;;;;;23.20;41.00;;;;;;5047188;28;19916;-76
2022/04/25 08:40:44;;;;;;;;;;;23.20;41.10;;;;;;5050363;28;19921;-76
2022/04/25 08:43:11;;;;;;;;;;;23.20;41.30;;;;;;5050367;28;19935;-76
2022/04/25 08:45:37;;;;;;;;;;;23.10;41.30;;;;;;5050753;28;19909;-76
2022/04/25 08:48:03;;;;;;;;;;;23.10;41.40;;;;;;5054627;28;19952;-76
2022/04/25 08:50:29;;;;;;;;;;;23.10;41.30;;;;;;5050381;28;20002;-76
2022/04/25 08:52:56;;;;;;;;;;;23.10;41.20;;;;;;5049131;28;19916;-76
2022/04/25 08:55:22;;;;;;;;;;;23.30;41.10;;;;;;5030406;28;19917;-76
2022/04/25 08:57:48;;;;;;;;;;;23.90;40.30;;;;;;5029978;28;20434;-76
2022/04/25 09:00:15;;;;;;;;;;;24.20;40.10;;;;;;5030561;28;19913;-76
2022/04/25 09:02:41;;;;;;;;;;;25.20;38.30;;;;;;5030891;28;19919;-76
2022/04/25 09:05:07;;;;;;;;;;;26.10;37.20;;;;;;5040833;28;20346;-76
2022/04/25 09:07:35;;;;;;;;;;;26.90;35.60;;;;;;5050795;28;19909;-76
2022/04/25 09:10:01;;;;;;;;;;;27.30;34.70;;;;;;5050584;28;19970;-76
2022/04/25 09:12:27;;;;;;;;;;;27.30;34.30;;;;;;5035208;28;19912;-78
2022/04/25 09:14:52;;;;;;;;;;;26.40;35.50;;;;;;5037027;28;20359;-79
2022/04/25 09:17:18;;;;;;;;;;;27.10;35.30;;;;;;5036510;28;19921;-77
2022/04/25 09:19:43;;;;;;;;;;;27.60;34.40;;;;;;5054268;28;19909;-77
2022/04/25 09:22:10;;;;;;;;;;;28.20;33.60;;;;;;5057823;28;19931;-76
2022/04/25 09:24:44;;;;;;;;;;;28.60;33.10;;;;;;5072322;28;19917;-76
2022/04/25 09:27:11;;;;;;;;;;;28.90;32.60;;;;;;5063119;28;19917;-75
2022/04/25 09:29:37;;;;;;;;;;;27.60;33.70;;;;;;5054166;28;20000;-76
2022/04/25 09:32:03;;;;;;;;;;;27.00;35.40;;;;;;5074443;28;19954;-76
2022/04/25 09:37:14;;;;;;;;;;;26.40;35.80;;;;;;5054493;28;20046;-76
2022/04/25 09:39:40;;;;;;;;;;;27.10;35.40;;;;;;5065303;28;20003;-76
2022/04/25 09:42:06;;;;;;;;;;;28.10;33.70;;;;;;5070838;28;19912;-77
2022/04/25 09:44:52;;;;;;;;;;;28.70;32.70;;;;;;5058782;28;20350;-77
2022/04/25 09:47:27;;;;;;;;;;;28.00;33.00;;;;;;5066736;28;19921;-76
2022/04/25 09:50:09;;;;;;;;;;;26.80;35.00;;;;;;5054169;28;19916;-77
2022/04/25 09:52:49;;;;;;;;;;;26.10;36.00;;;;;;5033783;28;20339;-76
2022/04/25 09:55:15;;;;;;;;;;;26.20;36.40;;;;;;5031143;28;20287;-76
2022/04/25 09:57:41;;;;;;;;;;;27.90;34.10;;;;;;5071149;28;20008;-76
2022/04/25 10:00:07;;;;;;;;;;;28.50;32.40;;;;;;5055664;28;19952;-76
2022/04/25 10:02:33;;;;;;;;;;;;;;;;;;5059071;28;19948;-77
2022/04/25 10:04:59;;;;;;;;;;;;;;;;;;5058509;28;19920;-79
2022/04/25 10:07:25;;;;;;;;;;;;;;;;;;5074432;28;19909;-81
2022/04/25 10:09:52;;;;;;;;;;;;;;;;;;5076213;28;19928;-81
2022/04/25 10:12:18;;;;;;;;;;;;;;;;;;5043823;28;19928;-82
2022/04/25 10:14:44;;;;;;;;;;;;;;;;;;5036845;28;19974;-80
2022/04/25 10:17:09;;;;;;;;;;;;;;;;;;5034743;28;19924;-80
2022/04/25 10:19:35;;;;;;;;;;;;;;;;;;5052171;28;19917;-80
2022/04/25 10:22:01;;;;;;;;;;;;;;;;;;5055184;28;19919;-79
2022/04/25 10:24:27;;;;;;;;;;;;;;;;;;5047316;28;19916;-79
2022/04/25 10:26:53;;;;;;;;;;;;;;;;;;5034838;28;19928;-79
2022/04/25 10:29:19;;;;;;;;;;;;;;;;;;5048066;28;20359;-79
2022/04/25 10:31:45;;;;;;;;;;;;;;;;;;5053978;28;20405;-77
2022/04/25 10:34:14;;;;;;;;;;;;;;;;;;5054207;28;19913;-79
2022/04/25 10:36:40;;;;;;;;;;;;;;;;;;5049443;28;19913;-77
2022/04/25 10:39:06;;;;;;;;;;;;;;;;;;5051580;28;19919;-81
2022/04/25 10:44:16;;;;;;;;;;;;;;;;;;5035474;28;19916;-79
2022/04/25 10:46:42;;;;;;;;;;;;;;;;;;5036367;28;19906;-79
2022/04/25 10:49:09;;;;;;;;;;;;;;;;;;5018979;28;19944;-80
2022/04/25 10:51:35;;;;;;;;;;;;;;;;;;5019483;28;20364;-81
2022/04/25 10:54:01;;;;;;;;;;;;;;;;;;5035709;28;20399;-80
2022/04/25 10:56:27;;;;;;;;;;;;;;;;;;5017473;28;19909;-80
2022/04/25 10:58:53;;;;;;;;;;;;;;;;;;5035314;28;19917;-80
2022/04/25 11:01:19;;;;;;;;;;;;;;;;;;5035552;28;19967;-82
2022/04/25 11:03:45;;;;;;;;;;;;;;;;;;5035880;28;20307;-80
2022/04/25 11:06:11;;;;;;;;;;;;;;;;;;5017808;28;19947;-80
2022/04/25 11:08:37;;;;;;;;;;;;;;;;;;5018369;28;19913;-80
2022/04/25 11:11:03;;;;;;;;;;;;;;;;;;5019764;28;19909;-79
2022/04/25 11:13:29;;;;;;;;;;;;;;;;;;5034614;28;19909;-80
2022/04/25 11:15:57;;;;;;;;;;;;;;;;;;5033268;28;20018;-80
2022/04/25 11:18:37;;;;;;;;;;;;;;;;;;5015661;28;19917;-80
2022/04/25 11:21:07;;;;;;;;;;;;;;;;;;5033315;28;19917;-80
2022/04/25 11:23:33;;;;;;;;;;;;;;;;;;5033647;28;20031;-80
2022/04/25 11:26:04;;;;;;;;;;;;;;;;;;5033731;28;19955;-80
2022/04/25 11:28:30;;;;;;;;;;;;;;;;;;5015067;28;19917;-81
2022/04/25 11:30:56;;;;;;;;;;;;;;;;;;5033425;28;19971;-80
2022/04/25 11:33:22;;;;;;;;;;;;;;;;;;5034084;28;19949;-80
2022/04/25 11:35:47;;;;;;;;;;;;;;;;;;5033764;28;20431;-80
2022/04/25 11:39:50;;;;;;;;;;;;;;;;;;5034381;28;19917;-81
2022/04/25 11:40:59;;;;;;;;;;;;;;;;;;5034982;28;19964;-81
2022/04/25 11:43:25;;;;;;;;;;;;;;;;;;5035777;28;19910;-81
2022/04/25 11:45:51;;;;;;;;;;;;;;;;;;5034607;28;19963;-79
2022/04/25 11:48:17;;;;;;;;;;;;;;;;;;5035480;28;19909;-81
2022/04/25 11:50:43;;;;;;;;;;;;;;;;;;5017806;28;19998;-82
2022/04/25 11:53:10;;;;;;;;;;;;;;;;;;5035369;28;20450;-80
2022/04/25 11:55:36;;;;;;;;;;;;;;;;;;5034530;28;19935;-81
2022/04/25 11:58:02;;;;;;;;;;;;;;;;;;5016503;28;19913;-79
2022/04/25 12:00:28;;;;;;;;;;;;;;;;;;5033504;28;19909;-82
2022/04/25 12:02:54;;;;;;;;;;;;;;;;;;5034487;28;19920;-82
2022/04/25 12:05:20;;;;;;;;;;;;;;;;;;5035171;28;19916;-82
2022/04/25 12:16:00;;;;;;;;;;;;;;;;;;5034942;28;19996;-83
2022/04/25 12:18:26;;;;;;;;;;;;;;;;;;5016676;28;19941;-83
2022/04/25 12:20:52;;;;;;;;;;;;;;;;;;5017436;28;19916;-83
2022/04/25 12:23:18;;;;;;;;;;;;;;;;;;5016772;28;19913;-83
2022/04/25 12:25:44;;;;;;;;;;;;;;;;;;5016866;28;19947;-84
2022/04/25 12:28:10;;;;;;;;;;;;;;;;;;5015434;28;19917;-83
2022/04/25 12:30:36;;;;;;;;;;;;;;;;;;5035015;28;19915;-81
2022/04/25 12:33:02;;;;;;;;;;;;;;;;;;5049984;28;20360;-81
2022/04/25 12:35:29;;;;;;;;;;;;;;;;;;5053488;28;20008;-80
2022/04/25 12:37:55;;;;;;;;;;;;;;;;;;5051506;28;19917;-81
2022/04/25 12:40:21;;;;;;;;;;;;;;;;;;5030857;28;20269;-82
2022/04/25 12:42:46;;;;;;;;;;;;;;;;;;5035259;28;19916;-81
2022/04/25 12:45:14;;;;;;;;;;;;;;;;;;5045489;28;20372;-82
2022/04/25 12:47:42;;;;;;;;;;;;;;;;;;5038699;28;19913;-81
2022/04/25 12:50:08;;;;;;;;;;;;;;;;;;5039288;28;20418;-83
2022/04/25 12:52:34;;;;;;;;;;;;;;;;;;5052308;28;19916;-82
2022/04/25 12:55:00;;;;;;;;;;;;;;;;;;5058151;28;20287;-83
2022/04/25 12:57:28;;;;;;;;;;;;;;;;;;5059209;28;20011;-82
2022/04/25 12:59:54;;;;;;;;;;;;;;;;;;5075815;28;19913;-84
2022/04/25 13:02:20;;;;;;;;;;;;;;;;;;5038560;28;19916;-84
2022/04/25 13:04:48;;;;;;;;;;;;;;;;;;5055680;28;19999;-84
2022/04/25 13:07:13;;;;;;;;;;;;;;;;;;5038629;28;19913;-85
2022/04/25 13:09:39;;;;;;;;;;;;;;;;;;5055578;28;19931;-82
2022/04/25 13:12:05;;;;;;;;;;;;;;;;;;5039171;28;19909;-81
2022/04/25 13:14:31;;;;;;;;;;;;;;;;;;5055265;28;19912;-82
2022/04/25 13:16:57;;;;;;;;;;;;;;;;;;5056822;28;20295;-82
2022/04/25 13:19:23;;;;;;;;;;;;;;;;;;5055968;28;19944;-82
2022/04/25 13:21:49;;;;;;;;;;;;;;;;;;5056933;28;19916;-83
2022/04/25 13:24:15;;;;;;;;;;;;;;;;;;5057877;28;19905;-80
2022/04/25 13:26:41;;;;;;;;;;;;;;;;;;5058366;28;20276;-81
2022/04/25 13:29:06;;;;;;;;;;;;;;;;;;5058344;28;19916;-79
2022/04/25 13:31:32;;;;;;;;;;;;;;;;;;5078903;28;19994;-83
2022/04/25 13:33:59;;;;;;;;;;;;;;;;;;5061019;28;20013;-81
2022/04/25 13:36:24;;;;;;;;;;;;;;;;;;5040802;28;19916;-81
2022/04/25 13:38:50;;;;;;;;;;;;;;;;;;5058618;28;19913;-82
2022/04/25 13:41:18;;;;;;;;;;;;;;;;;;5041009;28;19916;-80
2022/04/25 13:43:44;;;;;;;;;;;;;;;;;;5064454;28;19919;-81
2022/04/25 13:46:10;;;;;;;;;;;;;;;;;;5059400;28;20379;-81
2022/04/25 13:48:36;;;;;;;;;;;;;;;;;;5058374;28;19909;-81
2022/04/25 13:51:02;;;;;;;;;;;;;;;;;;5075093;28;19913;-81
2022/04/25 13:53:28;;;;;;;;;;;;;;;;;;5067229;28;19920;-82
2022/04/25 13:55:54;;;;;;;;;;;;;;;;;;5036554;28;19924;-81
2022/04/25 13:58:20;;;;;;;;;;;;;;;;;;5053281;28;20292;-84
2022/04/25 14:00:46;;;;;;;;;;;;;;;;;;5035612;28;19913;-80
2022/04/25 14:03:12;;;;;;;;;;;;;;;;;;5035743;28;20007;-80
2022/04/25 14:05:38;;;;;;;;;;;;;;;;;;5052497;28;19921;-81
2022/04/25 14:08:04;;;;;;;;;;;;;;;;;;5051332;28;20363;-80
2022/04/25 14:10:30;;;;;;;;;;;;;;;;;;5035037;28;20402;-81
2022/04/25 14:12:55;;;;;;;;;;;;;;;;;;5052620;28;19909;-81
2022/04/25 14:15:22;;;;;;;;;;;;;;;;;;5050116;28;20360;-80
2022/04/25 14:17:48;;;;;;;;;;;;;;;;;;5055300;28;19943;-80
2022/04/25 14:20:14;;;;;;;;;;;;;;;;;;5052767;28;20368;-80
2022/04/25 14:22:40;;;;;;;;;;;;;;;;;;5043353;28;20387;-80
2022/04/25 14:25:07;;;;;;;;;;;;;;;;;;5034082;28;19987;-79
2022/04/25 14:27:37;;;;;;;;;;;;;;;;;;5036058;28;19917;-81
2022/04/25 14:30:03;;;;;;;;;;;;;;;;;;5091816;22;19935;-67
2022/04/25 14:32:29;;;;;;;;;;;;;;;;;;5076187;28;19909;-66
2022/04/25 14:34:55;;;;;;;;;;;;;;;;;;5075119;28;19912;-67
2022/04/25 14:37:21;;;;;;;;;;;;;;;;;;5073725;28;20123;-67
2022/04/25 14:39:47;;;;;;;;;;;;;;;;;;5095149;28;19908;-65
2022/04/25 14:42:13;;;;;;;;;;;;;;;;;;5067373;28;20352;-66
2022/04/25 14:44:39;;;;;;;;;;;;;;;;;;5058743;28;19912;-68
2022/04/25 14:47:06;;;;;;;;;;;;;;;;;;5069600;28;20297;-68
2022/04/25 14:55:01;;;;;;;;;;;;;;;;;;5084979;28;19935;-68
2022/04/25 14:57:27;;;;;;;;;;;;;;;;;;5071087;28;20344;-68
2022/04/25 14:59:53;;;;;;;;;;;;;;;;;;5076662;28;19930;-67
2022/04/25 15:02:19;;;;;;;;;;;;;;;;;;5072556;28;19946;-66
2022/04/25 15:04:45;;;;;;;;;;;;;;;;;;5092052;28;20279;-68
2022/04/25 15:07:11;;;;;;;;;;;;;;;;;;5078889;28;19965;-69
2022/04/25 15:09:37;;;;;;;;;;;;;;;;;;5074516;28;20275;-67
2022/04/25 15:12:03;;;;;;;;;;;;;;;;;;5076822;28;19962;-67
2022/04/25 15:14:28;;;;;;;;;;;;;;;;;;5085192;28;19951;-68
2022/04/25 15:16:54;;;;;;;;;;;;;;;;;;5075887;28;19927;-68
2022/04/25 15:19:20;;;;;;;;;;;;;;;;;;5074556;28;20407;-67
2022/04/25 15:21:46;;;;;;;;;;;;;;;;;;5071811;28;19912;-67
2022/04/25 15:24:13;;;;;;;;;;;;;;;;;;5071862;28;20374;-67
2022/04/25 15:26:39;;;;;;;;;;;;;;;;;;5069796;28;20226;-68
2022/04/25 15:29:05;;;;;;;;;;;;;;;;;;5071938;28;19964;-69
2022/04/25 15:31:30;;;;;;;;;;;;;;;;;;5071933;28;19953;-68
2022/04/25 15:33:57;;;;;;;;;;;;;;;;;;5071159;28;19972;-69
2022/04/25 15:36:23;;;;;;;;;;;;;;;;;;5070005;28;20664;-67
2022/04/25 15:38:49;;;;;;;;;;;;;;;;;;5088663;28;19955;-68
2022/04/25 15:41:15;;;;;;;;;;;;;;;;;;5071333;28;20388;-68
2022/04/25 15:43:41;;;;;;;;;;;;;;;;;;5073529;28;20368;-72
2022/04/25 15:46:06;;;;;;;;;;;;;;;;;;5072083;28;19969;-67